Time;durP1;ratioP1;P1;durP2;ratioP2;P2;SDS_P1;SDS_P2;PMS_P1;PMS_P2;Temp;Humidity;BMP_temperature;BMP_pressure;BME280_temperature;BME280_humidity;BME280_pressure;Samples;Min_cycle;Max_cycle;Signal;HPM_P1;HPM_P2
2021/11/15 00:00:25;;;;;;;20.90;6.18;;;;;;;9.37;91.33;102318.13;5011274;28;20085;-66
2021/11/15 00:02:50;;;;;;;32.67;6.82;;;;;;;9.44;90.86;102313.91;5022528;28;20037;-66
2021/11/15 00:05:16;;;;;;;21.88;6.15;;;;;;;9.40;91.14;102317.50;5028918;28;20029;-65
2021/11/15 00:07:41;;;;;;;24.85;7.40;;;;;;;9.37;91.28;102310.81;5017143;28;20431;-66
2021/11/15 00:10:09;;;;;;;27.00;6.43;;;;;;;9.30;92.04;102307.78;5026869;28;20053;-65
2021/11/15 00:12:35;;;;;;;26.83;7.22;;;;;;;9.23;92.31;102304.72;5023148;28;20347;-66
2021/11/15 00:15:01;;;;;;;22.15;5.68;;;;;;;9.27;91.81;102303.00;5029920;28;20033;-65
2021/11/15 00:17:27;;;;;;;28.08;6.47;;;;;;;9.25;92.16;102305.22;5021698;28;20052;-66
2021/11/15 00:19:53;;;;;;;29.48;6.05;;;;;;;9.21;91.77;102306.91;5027291;28;20033;-64
2021/11/15 00:22:18;;;;;;;27.20;5.60;;;;;;;9.23;91.97;102302.03;5030776;28;20033;-66
2021/11/15 00:24:44;;;;;;;18.20;6.20;;;;;;;9.16;91.73;102295.47;5026945;28;20541;-66
2021/11/15 00:27:09;;;;;;;24.83;5.95;;;;;;;9.22;91.88;102288.88;5021250;28;20095;-65
2021/11/15 00:29:35;;;;;;;31.85;7.18;;;;;;;9.21;91.79;102292.69;5026541;28;20033;-65
2021/11/15 00:32:00;;;;;;;22.10;6.88;;;;;;;9.26;91.41;102287.19;5019324;28;20400;-66
2021/11/15 00:34:26;;;;;;;28.05;6.63;;;;;;;9.27;91.07;102286.84;5017330;28;20045;-65
2021/11/15 00:36:51;;;;;;;24.73;6.57;;;;;;;9.19;91.47;102286.81;5020343;28;20139;-65
2021/11/15 00:39:17;;;;;;;27.58;6.70;;;;;;;9.24;91.83;102294.75;5010581;28;20040;-65
2021/11/15 00:41:44;;;;;;;21.85;6.32;;;;;;;9.29;91.67;102286.59;5010174;28;20038;-66
2021/11/15 00:44:10;;;;;;;27.73;7.07;;;;;;;9.42;90.98;102293.78;5012142;28;20038;-65
2021/11/15 00:46:37;;;;;;;27.92;7.07;;;;;;;9.35;91.29;102288.06;5029152;28;20029;-67
2021/11/15 00:49:03;;;;;;;23.77;6.95;;;;;;;9.31;91.68;102282.47;5030841;28;20526;-65
2021/11/15 00:51:29;;;;;;;22.52;7.13;;;;;;;9.32;91.33;102284.06;5027078;28;20022;-65
2021/11/15 00:53:56;;;;;;;22.40;6.40;;;;;;;9.27;92.02;102284.19;5020002;28;20045;-65
2021/11/15 00:56:22;;;;;;;30.88;7.38;;;;;;;9.34;91.85;102292.63;5028737;28;20053;-65
2021/11/15 00:58:48;;;;;;;25.90;6.90;;;;;;;9.38;91.31;102287.44;5132035;23;20045;-65
2021/11/15 01:01:15;;;;;;;23.40;6.97;;;;;;;9.29;91.72;102292.72;5008674;28;20108;-66
2021/11/15 01:03:43;;;;;;;23.10;6.13;;;;;;;9.26;92.15;102285.28;5022397;28;20373;-66
2021/11/15 01:06:08;;;;;;;20.25;6.63;;;;;;;9.32;92.08;102291.34;5010096;28;20052;-66
2021/11/15 01:08:34;;;;;;;28.25;6.75;;;;;;;9.35;91.96;102288.06;4990313;28;20038;-66
2021/11/15 01:11:00;;;;;;;32.35;6.68;;;;;;;9.37;91.79;102283.16;4985606;28;20045;-66
2021/11/15 01:13:26;;;;;;;23.85;6.68;;;;;;;9.28;92.05;102287.66;4990191;28;20145;-66
2021/11/15 01:15:51;;;;;;;22.70;6.38;;;;;;;9.36;92.01;102289.63;4991545;28;20066;-66
2021/11/15 01:18:19;;;;;;;23.75;6.25;;;;;;;9.37;91.88;102285.84;4970719;28;20030;-66
2021/11/15 01:20:44;;;;;;;24.88;7.53;;;;;;;9.39;92.06;102287.13;4991623;28;20038;-66
2021/11/15 01:23:11;;;;;;;23.65;6.63;;;;;;;9.32;92.00;102291.34;4994794;28;20085;-65
2021/11/15 01:25:38;;;;;;;26.38;7.10;;;;;;;9.31;92.26;102287.06;4987641;28;20027;-65
2021/11/15 01:28:04;;;;;;;27.88;6.35;;;;;;;9.28;92.19;102285.78;4994476;28;20046;-66
2021/11/15 01:30:30;;;;;;;22.88;7.20;;;;;;;9.29;92.43;102276.59;4986621;28;20053;-66
2021/11/15 01:32:56;;;;;;;19.48;6.78;;;;;;;9.32;92.66;102275.19;4977180;28;20034;-65
2021/11/15 01:35:23;;;;;;;25.20;6.63;;;;;;;9.30;92.50;102272.81;4972162;28;20047;-65
2021/11/15 01:37:49;;;;;;;23.88;7.35;;;;;;;9.35;92.14;102272.69;4968626;28;20035;-66
2021/11/15 01:40:18;;;;;;;19.98;7.35;;;;;;;9.34;92.11;102271.13;4973831;28;20512;-65
2021/11/15 01:42:45;;;;;;;26.38;5.75;;;;;;;9.36;92.02;102278.88;4962604;28;20603;-66
2021/11/15 01:45:14;;;;;;;18.10;5.70;;;;;;;9.32;91.85;102280.59;4993724;28;20045;-65
2021/11/15 01:47:39;;;;;;;29.75;7.00;;;;;;;9.28;92.32;102288.47;4993945;28;20048;-65
2021/11/15 01:50:09;;;;;;;26.27;7.43;;;;;;;9.28;92.35;102291.16;4993370;28;20018;-66
2021/11/15 01:52:36;;;;;;;26.65;6.30;;;;;;;9.27;92.46;102286.84;4975860;28;20034;-65
2021/11/15 01:55:03;;;;;;;26.08;7.60;;;;;;;9.37;92.09;102285.84;4994101;28;20034;-65
2021/11/15 01:57:29;;;;;;;28.05;7.18;;;;;;;9.26;92.37;102285.28;4993819;28;20444;-66
2021/11/15 01:59:54;;;;;;;31.40;6.93;;;;;;;9.26;92.51;102295.25;4973321;28;20121;-66
2021/11/15 02:02:25;;;;;;;23.77;6.10;;;;;;;9.34;92.71;102298.00;4994036;28;20026;-66
2021/11/15 02:04:51;;;;;;;;;;;;;;;9.26;92.71;102297.94;4994365;28;20033;-66
2021/11/15 02:07:16;;;;;;;18.55;5.90;;;;;;;9.26;93.07;102295.25;4990173;28;19921;-66
2021/11/15 02:09:42;;;;;;;21.05;5.68;;;;;;;9.26;92.65;102295.25;4975996;28;20129;-66
2021/11/15 02:12:08;;;;;;;27.65;6.63;;;;;;;9.22;92.79;102287.00;4992757;28;20042;-66
2021/11/15 02:14:34;;;;;;;19.55;6.18;;;;;;;9.24;93.25;102297.44;4993814;28;20085;-66
2021/11/15 02:16:59;;;;;;;26.42;7.25;;;;;;;9.32;93.25;102294.03;4988431;28;20034;-65
2021/11/15 02:19:25;;;;;;;22.92;6.78;;;;;;;9.39;92.56;102295.19;4993462;28;20125;-66
2021/11/15 02:21:54;;;;;;;35.10;8.35;;;;;;;9.39;92.06;102294.41;4975407;28;20041;-66
2021/11/15 02:24:21;;;;;;;26.52;7.63;;;;;;;9.30;92.21;102294.34;4973743;28;20030;-65
2021/11/15 02:26:47;;;;;;;34.92;7.55;;;;;;;9.23;93.22;102293.97;4977364;28;20063;-65
2021/11/15 02:29:12;;;;;;;24.42;7.07;;;;;;;9.25;93.25;102293.66;4974223;28;20058;-65
2021/11/15 02:31:38;;;;;;;25.83;7.55;;;;;;;9.29;92.72;102286.59;4983325;28;20066;-65
2021/11/15 02:34:06;;;;;;;27.33;6.60;;;;;;;9.26;92.77;102296.03;4992915;28;20041;-65
2021/11/15 02:36:31;;;;;;;26.92;7.38;;;;;;;9.15;92.64;102293.91;4984899;28;20049;-65
2021/11/15 02:38:57;;;;;;;20.13;6.90;;;;;;;9.07;93.16;102293.53;4991371;28;20485;-65
2021/11/15 02:41:24;;;;;;;25.65;7.30;;;;;;;9.07;93.61;102293.53;4987990;28;20104;-65
2021/11/15 02:43:50;;;;;;;18.13;6.35;;;;;;;9.13;93.28;102296.88;4993092;28;20103;-65
2021/11/15 02:46:16;;;;;;;19.90;5.68;;;;;;;9.12;93.20;102294.50;4993130;28;20121;-65
2021/11/15 02:48:42;;;;;;;22.35;7.00;;;;;;;9.13;92.87;102283.44;4975740;28;20117;-65
2021/11/15 02:51:09;;;;;;;22.52;6.22;;;;;;;9.11;92.93;102293.72;4987957;28;20121;-65
2021/11/15 02:53:35;;;;;;;24.90;7.22;;;;;;;9.14;92.97;102285.03;4991768;28;20545;-65
2021/11/15 02:56:04;;;;;;;25.58;7.43;;;;;;;9.23;92.81;102280.53;4992994;28;20169;-65
2021/11/15 02:58:29;;;;;;;26.60;7.95;;;;;;;9.22;92.66;102280.81;4992826;28;20057;-65
2021/11/15 03:01:06;;;;;;;29.20;7.85;;;;;;;9.26;92.42;102284.50;4991054;28;20034;-65
2021/11/15 03:03:32;;;;;;;20.35;6.07;;;;;;;9.19;92.99;102292.19;4992118;28;20116;-65
2021/11/15 03:05:58;;;;;;;29.02;7.18;;;;;;;9.18;92.97;102283.31;4983658;28;20288;-65
2021/11/15 03:08:25;;;;;;;31.50;8.10;;;;;;;9.17;93.54;102280.94;4990813;28;20036;-65
2021/11/15 03:10:58;;;;;;;26.63;6.35;;;;;;;9.13;93.68;102291.50;4984897;28;20078;-68
2021/11/15 03:13:24;;;;;;;20.90;7.25;;;;;;;9.20;93.22;102286.50;4975032;28;20058;-65
2021/11/15 03:15:52;;;;;;;28.95;5.60;;;;;;;9.16;93.59;102290.91;4975017;28;20100;-64
2021/11/15 03:18:21;;;;;;;28.98;7.63;;;;;;;9.16;93.26;102290.09;4991906;28;20042;-65
2021/11/15 03:20:50;;;;;;;27.15;6.80;;;;;;;9.14;93.12;102286.94;4970038;28;20108;-65
2021/11/15 03:23:19;;;;;;;26.63;8.15;;;;;;;9.14;92.93;102293.09;4992292;28;20088;-65
2021/11/15 03:25:47;;;;;;;23.67;7.00;;;;;;;9.13;92.56;102291.50;4989338;28;20121;-65
2021/11/15 03:28:15;;;;;;;27.58;6.70;;;;;;;9.05;93.43;102284.97;4981370;28;20133;-65
2021/11/15 03:30:42;;;;;;;22.05;6.63;;;;;;;9.05;93.80;102290.34;4991209;28;20033;-66
2021/11/15 03:33:08;;;;;;;26.35;5.82;;;;;;;9.13;92.44;102277.28;4985714;28;20440;-67
2021/11/15 03:35:35;;;;;;;20.67;5.82;;;;;;;9.05;92.48;102287.66;4985889;28;20041;-65
2021/11/15 03:38:01;;;;;;;26.02;6.30;;;;;;;9.07;92.41;102284.66;4989301;28;20041;-65
2021/11/15 03:40:27;;;;;;;21.20;5.80;;;;;;;8.99;93.30;102275.44;4977992;28;20113;-66
2021/11/15 03:42:55;;;;;;;14.77;5.18;;;;;;;8.99;92.90;102278.13;4976140;28;20049;-66
2021/11/15 03:45:21;;;;;;;21.02;5.60;;;;;;;9.02;93.07;102280.19;4990808;28;20492;-66
2021/11/15 03:47:47;;;;;;;23.42;6.30;;;;;;;9.04;92.67;102278.00;4992096;28;20049;-66
2021/11/15 03:50:13;;;;;;;21.88;6.45;;;;;;;9.09;91.89;102282.47;4986706;28;20038;-66
2021/11/15 03:52:41;;;;;;;24.02;5.38;;;;;;;8.92;92.67;102275.03;4987814;28;20405;-66
2021/11/15 03:55:09;;;;;;;27.98;8.15;;;;;;;8.83;92.93;102270.69;4977732;28;20362;-66
2021/11/15 03:57:37;;;;;;;17.88;5.65;;;;;;;8.86;92.81;102270.91;4984143;28;20026;-66
2021/11/15 04:00:07;;;;;;;26.05;6.60;;;;;;;8.93;92.55;102275.84;4971201;28;20628;-66
2021/11/15 04:02:42;;;;;;;22.95;6.60;;;;;;;8.92;92.42;102282.34;4988975;28;20049;-65
2021/11/15 04:05:10;;;;;;;24.25;6.07;;;;;;;8.84;91.91;102275.78;4992218;28;20042;-65
2021/11/15 04:07:42;;;;;;;26.15;6.28;;;;;;;8.82;92.73;102280.66;4991064;28;20088;-67
2021/11/15 04:10:16;;;;;;;20.33;6.07;;;;;;;8.75;92.61;102274.13;4973577;28;20096;-65
2021/11/15 04:12:43;;;;;;;20.00;6.15;;;;;;;8.89;92.29;102278.34;4990759;28;20038;-66
2021/11/15 04:15:10;;;;;;;19.10;6.05;;;;;;;8.91;91.92;102283.41;4970520;28;20065;-65
2021/11/15 04:17:36;;;;;;;24.33;6.30;;;;;;;8.83;92.23;102276.06;4968746;28;20401;-66
2021/11/15 04:20:04;;;;;;;19.23;6.82;;;;;;;8.93;92.01;102276.66;4974745;28;20038;-66
2021/11/15 04:22:30;;;;;;;23.23;5.30;;;;;;;8.85;92.28;102273.88;4986542;28;20088;-66
2021/11/15 04:24:55;;;;;;;24.92;7.15;;;;;;;8.83;92.41;102276.88;4991728;28;20117;-66
2021/11/15 04:27:24;;;;;;;24.40;6.43;;;;;;;8.87;92.16;102267.13;4991639;28;20042;-66
2021/11/15 04:29:49;;;;;;;20.98;6.55;;;;;;;8.84;92.61;102261.56;4985876;28;20041;-66
2021/11/15 04:32:15;;;;;;;23.50;6.18;;;;;;;8.92;92.22;102272.34;4990901;28;20038;-66
2021/11/15 04:34:40;;;;;;;24.35;6.38;;;;;;;8.84;92.61;102272.31;4991232;28;20037;-66
2021/11/15 04:37:06;;;;;;;25.85;6.32;;;;;;;8.85;93.01;102266.63;4988607;28;20038;-66
2021/11/15 04:39:31;;;;;;;22.77;5.28;;;;;;;8.92;92.85;102274.28;4987015;28;20053;-65
2021/11/15 04:41:57;;;;;;;24.55;6.90;;;;;;;8.88;92.66;102274.06;4960122;28;20038;-66
2021/11/15 04:44:23;;;;;;;19.90;6.40;;;;;;;9.00;92.29;102278.94;4973829;28;20381;-66
2021/11/15 04:46:49;;;;;;;20.40;6.45;;;;;;;9.00;92.62;102278.94;4991477;28;20046;-66
2021/11/15 04:49:14;;;;;;;27.17;7.85;;;;;;;9.06;91.32;102283.06;4987439;28;20050;-65
2021/11/15 04:51:40;;;;;;;25.92;6.15;;;;;;;8.82;92.45;102280.66;4990545;28;20037;-65
2021/11/15 04:54:05;;;;;;;19.73;6.30;;;;;;;8.80;92.90;102276.69;4991508;28;20057;-66
2021/11/15 04:56:31;;;;;;;23.52;6.72;;;;;;;8.81;92.88;102273.69;4990156;28;20031;-65
2021/11/15 04:58:57;;;;;;;22.70;5.80;;;;;;;8.75;92.98;102269.53;4983244;28;20055;-66
2021/11/15 05:01:22;;;;;;;23.85;6.25;;;;;;;8.75;93.42;102282.94;4969797;28;20027;-66
2021/11/15 05:03:48;;;;;;;28.50;7.45;;;;;;;8.81;92.88;102273.69;4971758;28;20105;-66
2021/11/15 05:06:14;;;;;;;21.40;5.47;;;;;;;8.81;92.20;102262.94;4972234;28;20058;-67
2021/11/15 05:08:39;;;;;;;22.95;7.38;;;;;;;8.75;92.13;102264.16;4990702;28;20448;-66
2021/11/15 05:11:05;;;;;;;21.23;7.03;;;;;;;8.79;92.34;102269.72;4990083;28;20038;-66
2021/11/15 05:13:30;;;;;;;19.00;6.88;;;;;;;8.84;91.32;102267.72;4980786;28;20046;-66
2021/11/15 05:15:56;;;;;;;20.50;6.35;;;;;;;8.80;91.48;102261.38;4988639;28;20047;-66
2021/11/15 05:18:21;;;;;;;20.65;5.97;;;;;;;8.81;91.04;102256.78;4991400;28;20039;-66
2021/11/15 05:20:47;;;;;;;23.00;6.13;;;;;;;8.78;91.19;102260.06;4987544;28;20046;-66
2021/11/15 05:23:13;;;;;;;18.98;6.10;;;;;;;8.84;91.09;102267.72;4990121;28;20034;-66
2021/11/15 05:25:38;;;;;;;19.65;5.90;;;;;;;8.85;90.78;102263.13;4990985;28;20459;-67
2021/11/15 05:28:04;;;;;;;17.17;6.55;;;;;;;8.81;90.55;102260.25;4989534;28;20500;-66
2021/11/15 05:30:29;;;;;;;17.05;4.97;;;;;;;8.79;90.55;102264.34;4969707;28;20030;-66
2021/11/15 05:32:55;;;;;;;17.95;6.40;;;;;;;8.76;90.40;102263.06;4971517;28;20034;-66
2021/11/15 05:35:23;;;;;;;18.08;6.78;;;;;;;8.75;90.38;102266.06;4981034;28;20039;-66
2021/11/15 05:37:53;;;;;;;24.23;6.55;;;;;;;8.78;90.82;102266.25;4979059;28;20061;-66
2021/11/15 05:40:20;;;;;;;16.90;5.68;;;;;;;8.81;90.43;102260.25;4973897;28;20093;-66
2021/11/15 05:43:05;;;;;;;25.35;6.60;;;;;;;8.74;90.99;102276.00;4981208;28;20117;-67
2021/11/15 05:45:31;;;;;;;20.80;5.93;;;;;;;8.81;90.36;102270.19;4931626;29;20036;-66
2021/11/15 05:47:56;;;;;;;17.55;6.65;;;;;;;8.77;90.74;102280.75;4936595;29;20549;-66
2021/11/15 05:50:25;;;;;;;15.82;5.18;;;;;;;8.74;90.36;102270.63;4940347;29;20039;-65
2021/11/15 05:52:51;;;;;;;14.90;4.85;;;;;;;8.74;90.46;102270.63;4941070;28;20082;-65
2021/11/15 05:55:19;;;;;;;18.58;6.18;;;;;;;8.76;90.34;102270.31;4936108;29;20035;-66
2021/11/15 05:57:45;;;;;;;17.95;6.13;;;;;;;8.71;90.64;102273.91;4934164;28;20047;-66
2021/11/15 06:00:17;;;;;;;23.80;6.50;;;;;;;8.77;90.18;102275.38;4930439;29;20101;-64
2021/11/15 06:02:43;;;;;;;20.20;6.82;;;;;;;8.76;90.07;102283.75;4941432;29;20403;-66
2021/11/15 06:05:11;;;;;;;16.80;5.18;;;;;;;8.78;90.13;102276.19;4948267;29;20050;-66
2021/11/15 06:07:36;;;;;;;17.15;6.45;;;;;;;8.75;90.08;102274.91;4948247;28;20046;-66
2021/11/15 06:10:06;;;;;;;15.65;5.15;;;;;;;8.73;90.19;102268.25;4943651;29;20043;-65
2021/11/15 06:12:31;;;;;;;16.73;5.40;;;;;;;8.75;90.12;102271.44;4944484;28;20047;-66
2021/11/15 06:14:57;;;;;;;21.42;5.72;;;;;;;8.70;90.38;102274.22;4939411;29;20042;-66
2021/11/15 06:17:22;;;;;;;18.10;6.13;;;;;;;8.74;90.56;102269.84;4937870;29;20121;-66
2021/11/15 06:19:48;;;;;;;15.15;5.55;;;;;;;8.79;89.97;102267.81;4943986;29;20035;-66
2021/11/15 06:22:13;;;;;;;15.40;6.13;;;;;;;8.75;90.21;102264.16;4958486;28;20065;-66
2021/11/15 06:24:41;;;;;;;19.63;6.13;;;;;;;8.74;89.80;102269.84;4984904;28;20382;-65
2021/11/15 06:27:09;;;;;;;20.25;6.55;;;;;;;8.70;90.62;102275.03;4980853;28;20056;-66
2021/11/15 06:29:35;;;;;;;17.42;5.00;;;;;;;8.73;90.45;102274.41;4990293;28;20105;-67
2021/11/15 06:32:01;;;;;;;18.65;6.20;;;;;;;8.73;90.62;102279.78;4988490;28;20137;-66
2021/11/15 06:34:27;;;;;;;26.23;6.15;;;;;;;8.71;90.64;102279.28;4991626;28;20057;-66
2021/11/15 06:36:52;;;;;;;18.00;5.13;;;;;;;8.78;90.48;102282.38;4990149;28;20141;-66
2021/11/15 06:39:18;;;;;;;15.93;5.82;;;;;;;8.78;90.16;102282.38;4991966;28;20034;-65
2021/11/15 06:41:44;;;;;;;12.88;5.60;;;;;;;8.81;90.10;102289.00;4972874;28;20181;-65
2021/11/15 06:44:09;;;;;;;18.30;5.72;;;;;;;8.78;90.14;102285.06;4993024;28;20504;-66
2021/11/15 06:46:35;;;;;;;14.10;5.80;;;;;;;8.75;90.18;102280.28;4993413;28;20034;-66
2021/11/15 06:49:00;;;;;;;20.58;5.90;;;;;;;8.80;90.26;102288.22;4982949;28;20053;-66
2021/11/15 06:51:28;;;;;;;18.10;6.03;;;;;;;8.79;90.29;102285.81;4991752;28;20030;-66
2021/11/15 06:53:53;;;;;;;17.70;5.65;;;;;;;8.80;90.13;102287.44;4993183;28;20037;-67
2021/11/15 06:56:19;;;;;;;20.23;5.97;;;;;;;8.86;90.20;102281.66;4992919;28;20038;-66
2021/11/15 06:58:44;;;;;;;21.55;5.15;;;;;;;8.77;89.85;102280.75;5000791;23;20054;-65
2021/11/15 07:01:11;;;;;;;16.92;5.63;;;;;;;8.79;90.41;102288.50;4991520;28;20034;-64
2021/11/15 07:03:36;;;;;;;19.00;5.78;;;;;;;8.77;90.67;102283.44;4992751;28;20014;-64
2021/11/15 07:06:02;;;;;;;18.40;6.22;;;;;;;8.82;90.42;102298.66;5010282;28;20033;-64
2021/11/15 07:08:28;;;;;;;20.95;6.30;;;;;;;8.79;89.96;102299.25;4998545;28;20014;-64
2021/11/15 07:10:54;;;;;;;16.67;5.50;;;;;;;8.78;90.03;102293.09;5003474;28;20091;-63
2021/11/15 07:13:23;;;;;;;19.65;6.57;;;;;;;8.74;90.06;102289.44;5001914;28;20026;-64
2021/11/15 07:15:48;;;;;;;12.73;5.13;;;;;;;8.80;90.27;102287.44;5012405;28;20045;-63
2021/11/15 07:18:15;;;;;;;18.27;6.25;;;;;;;8.78;90.16;102286.94;5003511;28;20033;-64
2021/11/15 07:20:40;;;;;;;19.20;5.80;;;;;;;8.81;90.13;102297.06;5004639;28;20095;-64
2021/11/15 07:23:07;;;;;;;19.45;6.38;;;;;;;8.80;89.90;102288.22;5011782;28;20041;-64
2021/11/15 07:25:33;;;;;;;19.02;5.47;;;;;;;8.81;90.05;102295.19;5007748;28;20024;-64
2021/11/15 07:27:58;;;;;;;18.02;5.43;;;;;;;8.86;90.15;102297.78;5004079;28;20112;-65
2021/11/15 07:30:25;;;;;;;20.67;6.15;;;;;;;8.79;90.29;102297.38;5011455;28;20044;-64
2021/11/15 07:32:51;;;;;;;22.65;5.70;;;;;;;8.88;89.72;102300.16;5012158;28;20036;-63
2021/11/15 07:35:18;;;;;;;19.10;5.68;;;;;;;8.87;89.82;102295.84;4991731;28;20038;-62
2021/11/15 07:37:44;;;;;;;14.50;5.30;;;;;;;8.88;89.58;102292.09;4992355;28;20053;-60
2021/11/15 07:40:11;;;;;;;18.27;5.90;;;;;;;8.84;89.49;102286.53;4998795;28;20022;-62
2021/11/15 07:42:37;;;;;;;20.05;5.32;;;;;;;8.86;89.60;102287.03;4985394;28;20481;-63
2021/11/15 07:45:04;;;;;;;17.35;5.28;;;;;;;8.92;89.21;102285.03;4990154;28;20037;-63
2021/11/15 07:47:29;;;;;;;21.90;5.47;;;;;;;8.91;88.71;102289.59;4992400;28;20121;-66
2021/11/15 07:49:55;;;;;;;15.30;5.88;;;;;;;8.83;88.90;102292.19;4990575;28;20109;-64
2021/11/15 07:52:22;;;;;;;17.20;5.05;;;;;;;8.89;89.16;102296.34;4974473;28;20074;-63
2021/11/15 07:54:48;;;;;;;14.57;4.65;;;;;;;8.86;89.29;102292.41;4987657;28;20450;-63
2021/11/15 07:57:16;;;;;;;12.88;5.65;;;;;;;8.96;89.13;102296.75;4972579;28;20034;-64
2021/11/15 07:59:45;;;;;;;16.52;6.05;;;;;;;8.95;88.08;102292.47;4989603;28;20033;-65
2021/11/15 08:02:14;;;;;;;14.02;5.68;;;;;;;8.90;88.66;102285.28;5002131;28;20037;-64
2021/11/15 08:04:41;;;;;;;17.60;5.20;;;;;;;8.84;88.39;102273.09;5011132;28;20101;-64
2021/11/15 08:07:07;;;;;;;16.10;5.60;;;;;;;8.85;88.50;102285.44;4993986;28;20481;-64
2021/11/15 08:09:32;;;;;;;15.32;5.15;;;;;;;8.83;88.61;102281.44;4972431;28;20039;-63
2021/11/15 08:12:04;;;;;;;19.13;6.20;;;;;;;8.85;88.71;102279.25;4971997;28;20031;-64
2021/11/15 08:14:30;;;;;;;15.27;5.65;;;;;;;8.92;88.29;102287.72;4969557;28;20042;-64
2021/11/15 08:16:58;;;;;;;17.88;5.57;;;;;;;9.00;86.67;102285.06;5002953;28;20077;-64
2021/11/15 08:19:24;;;;;;;15.75;5.53;;;;;;;9.00;86.72;102287.75;4991451;28;20030;-64
2021/11/15 08:21:50;;;;;;;16.05;5.60;;;;;;;8.99;86.63;102283.50;4982118;28;20046;-64
2021/11/15 08:24:18;;;;;;;26.77;6.50;;;;;;;8.98;86.45;102294.56;4987234;28;20037;-65
2021/11/15 08:26:51;;;;;;;19.73;5.35;;;;;;;9.04;86.35;102294.13;5010176;28;20018;-64
2021/11/15 08:29:18;;;;;;;14.77;5.30;;;;;;;8.97;86.41;102292.94;4972055;28;20493;-64
2021/11/15 08:31:45;;;;;;;12.40;4.97;;;;;;;8.99;86.14;102288.88;4979402;28;20030;-65
2021/11/15 08:34:11;;;;;;;17.65;5.25;;;;;;;8.96;86.17;102302.13;4973222;28;20078;-64
2021/11/15 08:36:41;;;;;;;18.15;5.80;;;;;;;9.06;85.78;102302.69;4972026;28;20456;-64
2021/11/15 08:39:17;;;;;;;12.68;5.30;;;;;;;9.00;86.13;102295.81;4966649;28;20034;-64
2021/11/15 08:41:47;;;;;;;14.23;4.78;;;;;;;9.05;86.43;102300.28;4987636;28;20442;-63
2021/11/15 08:44:16;;;;;;;17.00;5.68;;;;;;;9.02;86.42;102290.13;4980644;28;20083;-63
2021/11/15 08:46:44;;;;;;;18.77;5.93;;;;;;;9.08;85.79;102300.47;4989578;28;20628;-64
2021/11/15 08:49:11;;;;;;;14.63;4.93;;;;;;;9.16;85.51;102308.91;5002366;28;20499;-63
2021/11/15 08:51:38;;;;;;;20.63;5.50;;;;;;;9.11;85.41;102299.09;4971987;28;20121;-64
2021/11/15 08:54:06;;;;;;;20.08;5.53;;;;;;;9.13;85.97;102310.31;4990963;28;20506;-64
2021/11/15 08:56:32;;;;;;;19.25;5.57;;;;;;;9.11;86.09;102315.22;4990429;28;20023;-63
2021/11/15 08:58:57;;;;;;;18.48;5.43;;;;;;;9.19;85.97;102316.38;4983806;28;20042;-64
2021/11/15 09:01:25;;;;;;;15.85;5.50;;;;;;;9.13;85.53;102313.00;4958023;28;20038;-64
2021/11/15 09:03:53;;;;;;;17.42;5.68;;;;;;;9.14;84.91;102311.91;4985339;28;20058;-64
2021/11/15 09:06:22;;;;;;;18.13;5.50;;;;;;;9.07;84.91;102315.03;4988772;28;20050;-64
2021/11/15 09:08:49;;;;;;;19.88;5.40;;;;;;;9.04;85.32;102307.56;4998258;28;20052;-63
2021/11/15 09:11:16;;;;;;;19.63;6.43;;;;;;;9.22;84.55;102305.00;4988813;28;20157;-63
2021/11/15 09:13:43;;;;;;;18.27;5.97;;;;;;;9.16;84.95;102298.16;4989553;28;20097;-63
2021/11/15 09:16:09;;;;;;;13.27;4.15;;;;;;;9.09;84.99;102295.91;4986225;28;20052;-63
2021/11/15 09:18:36;;;;;;;20.75;5.93;;;;;;;9.20;84.34;102302.63;4996339;28;20026;-63
2021/11/15 09:21:06;;;;;;;11.77;4.75;;;;;;;9.24;84.08;102287.47;4987852;28;20034;-64
2021/11/15 09:23:34;;;;;;;16.80;5.15;;;;;;;9.15;84.90;102296.59;5006288;28;20034;-63
2021/11/15 09:25:59;;;;;;;21.50;5.90;;;;;;;9.16;84.91;102290.09;4989815;28;20034;-63
2021/11/15 09:28:25;;;;;;;13.10;5.30;;;;;;;9.16;85.27;102287.41;4992550;28;20041;-63
2021/11/15 09:30:51;;;;;;;14.07;5.30;;;;;;;9.20;85.07;102288.38;4999265;28;20038;-62
2021/11/15 09:33:17;;;;;;;14.48;5.45;;;;;;;9.22;84.55;102283.50;4993768;28;20026;-63
2021/11/15 09:35:48;;;;;;;20.15;5.40;;;;;;;9.19;85.09;102282.25;4984634;28;20038;-64
2021/11/15 09:38:24;;;;;;;18.70;5.13;;;;;;;9.23;85.20;102283.22;4997145;28;20101;-63
2021/11/15 09:40:57;;;;;;;22.05;7.13;;;;;;;9.31;83.77;102295.91;4994105;28;20030;-63
2021/11/15 09:43:24;;;;;;;12.45;4.97;;;;;;;9.23;84.27;102293.19;4995260;28;20042;-63
2021/11/15 09:45:50;;;;;;;18.88;6.40;;;;;;;9.30;84.39;102297.03;5003897;28;20085;-63
2021/11/15 09:48:16;;;;;;;13.57;4.88;;;;;;;9.32;83.94;102300.19;4982313;28;20042;-63
2021/11/15 09:50:41;;;;;;;18.13;4.90;;;;;;;9.26;83.80;102295.25;4996213;28;20065;-64
2021/11/15 09:53:08;;;;;;;16.02;5.55;;;;;;;9.36;83.49;102305.75;4992393;28;20500;-64
2021/11/15 09:55:34;;;;;;;19.33;6.60;;;;;;;9.39;82.92;102305.94;5010101;28;20037;-64
2021/11/15 09:58:00;;;;;;;18.95;5.80;;;;;;;9.37;82.82;102301.97;4990361;28;20094;-64
2021/11/15 10:00:27;;;;;;;20.15;5.25;;;;;;;9.33;82.58;102312.53;4987453;28;20492;-64
2021/11/15 10:02:55;;;;;;;15.18;5.30;;;;;;;9.36;82.90;102305.75;4974452;28;20046;-63
2021/11/15 10:05:21;;;;;;;12.50;4.60;;;;;;;9.34;82.83;102306.06;4975369;28;20030;-63
2021/11/15 10:07:50;;;;;;;14.25;5.22;;;;;;;9.26;83.19;102301.41;4983379;28;20088;-64
2021/11/15 10:10:27;;;;;;;16.75;5.18;;;;;;;9.35;82.90;102306.88;4990113;28;20054;-63
2021/11/15 10:13:19;;;;;;;16.60;5.82;;;;;;;9.29;82.33;102300.78;4990916;28;20045;-63
2021/11/15 10:15:46;;;;;;;21.98;5.28;;;;;;;9.13;82.12;102296.09;4990362;28;20619;-63
2021/11/15 10:18:14;;;;;;;14.55;5.07;;;;;;;9.11;82.90;102304.47;4987515;28;20022;-63
2021/11/15 10:20:51;;;;;;;13.43;4.57;;;;;;;9.18;82.97;102304.03;4977584;28;20853;-63
2021/11/15 10:23:33;;;;;;;17.48;5.20;;;;;;;9.21;83.28;102298.84;4988934;28;20036;-63
2021/11/15 10:26:00;;;;;;;12.63;4.50;;;;;;;9.27;83.40;102297.63;4994163;28;20085;-63
2021/11/15 10:28:33;;;;;;;15.75;5.15;;;;;;;9.31;83.02;102282.47;4974581;28;20054;-63
2021/11/15 10:30:59;;;;;;;13.25;5.30;;;;;;;9.23;82.80;102288.59;4998416;28;20567;-64
2021/11/15 10:33:39;;;;;;;11.45;4.50;;;;;;;9.26;83.19;102289.84;4992883;28;20050;-63
2021/11/15 10:36:05;;;;;;;14.32;5.35;;;;;;;9.25;83.31;102291.78;4978012;28;20038;-63
2021/11/15 10:39:00;;;;;;;13.57;4.82;;;;;;;9.23;83.90;102287.78;4992758;28;20060;-63
2021/11/15 10:41:25;;;;;;;12.95;4.95;;;;;;;9.23;84.27;102287.78;4974942;28;20552;-63
2021/11/15 10:43:58;;;;;;;17.52;5.95;;;;;;;9.19;84.68;102284.94;4989992;28;20130;-64
2021/11/15 10:46:35;;;;;;;16.73;4.70;;;;;;;9.28;84.19;102275.03;4989048;28;20039;-64
2021/11/15 10:49:05;;;;;;;15.00;5.30;;;;;;;9.22;84.56;102278.94;4984259;28;20026;-64
2021/11/15 10:51:44;;;;;;;16.73;5.85;;;;;;;9.38;83.35;102268.59;4980325;28;20166;-64
2021/11/15 10:57:42;;;;;;;14.57;4.65;;;;;;;9.24;82.96;102270.56;4982206;28;20051;-64
2021/11/15 11:00:11;;;;;;;15.32;4.65;;;;;;;9.14;83.30;102266.22;4991312;28;20034;-64
2021/11/15 11:02:49;;;;;;;14.95;4.78;;;;;;;9.30;82.84;102259.38;4986632;28;20042;-63
2021/11/15 11:05:15;;;;;;;19.27;5.93;;;;;;;9.40;83.00;102248.38;4981747;28;20112;-63
2021/11/15 11:08:09;;;;;;;16.25;5.35;;;;;;;9.31;83.17;102265.56;4987347;28;20116;-64
2021/11/15 11:10:44;;;;;;;12.38;4.85;;;;;;;9.40;82.48;102259.16;4986988;28;20058;-63
2021/11/15 11:13:14;;;;;;;12.02;4.35;;;;;;;9.33;82.78;102252.63;4985797;28;20037;-63
2021/11/15 11:18:37;;;;;;;20.02;5.03;;;;;;;9.36;83.51;102258.16;4987619;28;20030;-63
2021/11/15 11:24:14;;;;;;;20.70;5.95;;;;;;;9.37;83.19;102261.66;4982976;28;20095;-63
2021/11/15 11:26:47;;;;;;;17.52;6.28;;;;;;;9.40;83.31;102259.16;4989506;28;20034;-63
2021/11/15 11:29:21;;;;;;;17.52;6.05;;;;;;;9.39;82.60;102254.09;4991500;28;20034;-63
2021/11/15 11:31:50;;;;;;;13.60;4.90;;;;;;;9.38;83.48;102247.91;4991246;28;20445;-63
2021/11/15 11:34:18;;;;;;;12.60;5.38;;;;;;;9.36;83.41;102238.53;4978399;28;20697;-63